Time;durP1;ratioP1;P1;durP2;ratioP2;P2;SDS_P1;SDS_P2;PMS_P1;PMS_P2;Temp;Humidity;BMP_temperature;BMP_pressure;BME280_temperature;BME280_humidity;BME280_pressure;Samples;Min_cycle;Max_cycle;Signal;HPM_P1;HPM_P2
2023/08/23 00:02:08;;;;;;;1.58;1.05;;;28.10;62.20;;;;;;5070365;28;20195;-83
2023/08/23 00:04:39;;;;;;;1.02;0.90;;;28.10;62.20;;;;;;5072635;28;20190;-84
2023/08/23 00:07:07;;;;;;;2.35;1.13;;;28.10;62.20;;;;;;5072487;28;20205;-85
2023/08/23 00:09:36;;;;;;;1.73;0.98;;;28.00;62.20;;;;;;5068916;28;20205;-83
2023/08/23 00:12:05;;;;;;;0.57;0.57;;;28.00;62.20;;;;;;5072262;28;20249;-83
2023/08/23 00:14:33;;;;;;;1.58;1.48;;;28.00;62.40;;;;;;5071009;28;20538;-84
2023/08/23 00:17:02;;;;;;;0.75;0.70;;;28.00;62.70;;;;;;5068945;28;20202;-84
2023/08/23 00:19:31;;;;;;;0.73;0.60;;;28.00;62.70;;;;;;5070942;28;20186;-84
2023/08/23 00:22:02;;;;;;;0.30;0.30;;;28.00;62.70;;;;;;5070920;28;20187;-85
2023/08/23 00:24:31;;;;;;;2.50;2.15;;;28.00;62.70;;;;;;5073228;28;20190;-84
2023/08/23 00:26:59;;;;;;;3.30;0.95;;;28.00;62.90;;;;;;5070217;28;20571;-82
2023/08/23 00:29:28;;;;;;;1.40;0.98;;;28.00;63.00;;;;;;5073116;28;20599;-85
2023/08/23 00:31:57;;;;;;;1.65;1.52;;;28.00;63.00;;;;;;5073698;28;20199;-83
2023/08/23 00:34:25;;;;;;;1.58;0.95;;;28.00;63.20;;;;;;5071569;28;20738;-84
2023/08/23 00:36:54;;;;;;;1.55;1.33;;;28.00;63.30;;;;;;5071906;28;20197;-84
2023/08/23 00:39:25;;;;;;;0.95;0.90;;;27.90;63.30;;;;;;5071705;28;20236;-85
2023/08/23 00:41:54;;;;;;;0.85;0.50;;;27.90;63.80;;;;;;5074852;28;20190;-85
2023/08/23 00:44:22;;;;;;;3.00;1.80;;;27.90;64.00;;;;;;5070002;28;20226;-85
2023/08/23 00:46:51;;;;;;;0.88;0.88;;;27.80;64.20;;;;;;5071802;28;20658;-85
2023/08/23 00:49:21;;;;;;;0.77;0.73;;;27.80;64.40;;;;;;5069785;28;20191;-85
2023/08/23 00:51:51;;;;;;;0.90;0.63;;;27.80;64.40;;;;;;5071280;28;20815;-84
2023/08/23 00:54:19;;;;;;;0.73;0.70;;;27.70;64.70;;;;;;5072130;28;20182;-85
2023/08/23 00:56:51;;;;;;;2.55;1.10;;;27.80;64.70;;;;;;5072783;28;20196;-84
2023/08/23 00:59:20;;;;;;;1.63;1.27;;;27.80;64.80;;;;;;5069528;28;20171;-86
2023/08/23 01:01:50;;;;;;;2.38;0.82;;;27.70;64.60;;;;;;5071928;28;20656;-86
2023/08/23 01:04:18;;;;;;;1.63;1.50;;;27.80;64.70;;;;;;5072297;28;20217;-84
2023/08/23 01:06:55;;;;;;;3.17;1.85;;;27.70;64.80;;;;;;5069718;28;20201;-85
2023/08/23 01:09:32;;;;;;;1.38;1.25;;;27.70;64.60;;;;;;5072960;28;20198;-84
2023/08/23 01:12:08;;;;;;;0.90;0.90;;;27.70;64.70;;;;;;5071759;28;20230;-86
2023/08/23 01:14:52;;;;;;;2.05;1.85;;;27.70;64.90;;;;;;5070669;28;20190;-85
2023/08/23 01:17:22;;;;;;;1.27;1.17;;;27.70;65.00;;;;;;5071867;28;20240;-84
2023/08/23 01:19:52;;;;;;;1.60;1.20;;;27.70;65.20;;;;;;5070543;28;20270;-85
2023/08/23 01:22:23;;;;;;;0.75;0.75;;;27.70;64.90;;;;;;5072885;28;20195;-85
2023/08/23 01:24:55;;;;;;;1.27;1.17;;;27.70;65.00;;;;;;5070101;28;20267;-85
2023/08/23 01:27:24;;;;;;;0.95;0.80;;;27.70;65.00;;;;;;5071985;28;20638;-84
2023/08/23 01:29:53;;;;;;;1.17;1.02;;;27.70;66.00;;;;;;5072224;28;20201;-82
2023/08/23 01:32:32;;;;;;;1.25;0.68;;;27.70;65.20;;;;;;5069190;28;20824;-82
2023/08/23 01:35:06;;;;;;;0.98;0.70;;;27.70;65.20;;;;;;5069590;28;20194;-83
2023/08/23 01:37:38;;;;;;;2.30;1.40;;;27.70;64.90;;;;;;5069422;28;20630;-83
2023/08/23 01:40:12;;;;;;;0.70;0.70;;;27.70;65.10;;;;;;5069607;28;20201;-84
2023/08/23 01:42:41;;;;;;;2.00;1.05;;;27.60;65.00;;;;;;5066800;28;20198;-82
2023/08/23 01:45:10;;;;;;;0.70;0.70;;;27.60;65.00;;;;;;5069394;28;20248;-84
2023/08/23 01:47:39;;;;;;;1.25;1.00;;;27.60;64.90;;;;;;5069384;28;20270;-82
2023/08/23 01:50:09;;;;;;;1.20;0.90;;;27.60;64.90;;;;;;5070357;28;20194;-84
2023/08/23 01:52:37;;;;;;;1.55;1.38;;;27.60;64.70;;;;;;5070321;28;20216;-84
2023/08/23 01:55:08;;;;;;;5.32;0.95;;;27.60;64.70;;;;;;5069604;28;20210;-82
2023/08/23 01:57:38;;;;;;;1.90;1.00;;;27.60;64.90;;;;;;5058907;28;20281;-83
2023/08/23 02:00:09;;;;;;;1.45;1.35;;;27.60;64.90;;;;;;5072421;28;20213;-84
2023/08/23 02:02:38;;;;;;;2.55;1.42;;;27.60;64.80;;;;;;5065864;28;20642;-84
2023/08/23 02:05:08;;;;;;;1.00;0.95;;;27.60;64.80;;;;;;5073679;28;20245;-84
2023/08/23 02:07:36;;;;;;;2.75;1.67;;;27.60;64.80;;;;;;5074816;28;20229;-85
2023/08/23 02:10:07;;;;;;;1.65;0.85;;;27.60;64.80;;;;;;5074730;28;20197;-84
2023/08/23 02:12:36;;;;;;;5.85;0.95;;;27.60;64.60;;;;;;5074988;28;20236;-83
2023/08/23 02:15:06;;;;;;;1.55;1.02;;;27.60;64.60;;;;;;5074261;28;20202;-86
2023/08/23 02:17:36;;;;;;;1.50;0.73;;;27.60;64.60;;;;;;5072671;28;20201;-84
2023/08/23 02:20:05;;;;;;;1.13;1.02;;;27.60;64.50;;;;;;5074527;28;20201;-83
2023/08/23 02:22:34;;;;;;;0.98;0.93;;;27.60;64.40;;;;;;5076485;28;20202;-84
2023/08/23 02:25:02;;;;;;;1.88;1.42;;;27.60;64.20;;;;;;5074558;28;20638;-84
2023/08/23 02:27:32;;;;;;;1.52;1.27;;;27.60;64.20;;;;;;5075140;28;20201;-85
2023/08/23 02:30:01;;;;;;;3.17;1.80;;;27.60;64.10;;;;;;5072779;28;20197;-84
2023/08/23 02:32:29;;;;;;;0.80;0.60;;;27.60;64.00;;;;;;5071000;28;21125;-83
2023/08/23 02:34:58;;;;;;;0.40;0.40;;;27.60;64.00;;;;;;5076722;28;20191;-84
2023/08/23 02:37:26;;;;;;;0.52;0.52;;;27.60;63.80;;;;;;5070035;28;20214;-84
2023/08/23 02:39:55;;;;;;;0.82;0.82;;;27.60;63.80;;;;;;5076329;28;20242;-84
2023/08/23 02:42:27;;;;;;;1.45;1.35;;;27.60;63.80;;;;;;5073463;28;20194;-83
2023/08/23 02:44:58;;;;;;;0.73;0.60;;;27.60;63.80;;;;;;5074946;28;20229;-83
2023/08/23 02:47:27;;;;;;;3.25;1.45;;;27.60;63.80;;;;;;5073672;28;20274;-84
2023/08/23 02:49:56;;;;;;;1.33;1.00;;;27.60;63.90;;;;;;5085568;28;20190;-83
2023/08/23 02:52:26;;;;;;;1.02;0.75;;;27.60;63.80;;;;;;5088396;28;20206;-84
2023/08/23 02:54:55;;;;;;;0.98;0.73;;;27.60;63.80;;;;;;5089132;28;20193;-83
2023/08/23 02:57:23;;;;;;;0.60;0.60;;;27.60;63.80;;;;;;5088634;28;20185;-82
2023/08/23 02:59:52;;;;;;;1.33;1.00;;;27.60;63.90;;;;;;5090473;28;20187;-84
2023/08/23 03:02:22;;;;;;;0.82;0.80;;;27.50;63.80;;;;;;5090918;28;20195;-83
2023/08/23 03:04:50;;;;;;;2.35;1.92;;;27.60;63.90;;;;;;5090675;28;20242;-84
2023/08/23 03:07:19;;;;;;;1.08;0.93;;;27.60;64.00;;;;;;5089325;28;20202;-83
2023/08/23 03:09:47;;;;;;;0.50;0.50;;;27.50;63.90;;;;;;5087573;28;20218;-81
2023/08/23 03:12:16;;;;;;;1.25;0.90;;;27.50;63.80;;;;;;5088113;28;20673;-84
2023/08/23 03:14:45;;;;;;;1.45;0.77;;;27.50;63.60;;;;;;5086680;28;20254;-84
2023/08/23 03:17:14;;;;;;;1.33;0.73;;;27.40;63.60;;;;;;5089331;28;20588;-83
2023/08/23 03:19:44;;;;;;;1.00;0.85;;;27.50;63.50;;;;;;5087340;28;20198;-83
2023/08/23 03:22:14;;;;;;;0.98;0.55;;;27.40;63.80;;;;;;5084719;28;20229;-85
2023/08/23 03:24:43;;;;;;;1.02;0.63;;;27.40;63.50;;;;;;5084476;28;20284;-84
2023/08/23 03:27:12;;;;;;;1.75;1.23;;;27.40;63.50;;;;;;5093043;28;20190;-85
2023/08/23 03:29:40;;;;;;;1.65;1.27;;;27.40;63.50;;;;;;5092742;28;20288;-84
2023/08/23 03:32:09;;;;;;;3.67;1.67;;;27.30;63.40;;;;;;5087733;28;20195;-84
2023/08/23 03:34:38;;;;;;;0.50;0.50;;;27.30;63.40;;;;;;5091315;28;20198;-85
2023/08/23 03:37:09;;;;;;;1.83;1.52;;;27.30;63.40;;;;;;5092488;28;20200;-83
2023/08/23 03:39:38;;;;;;;0.85;0.85;;;27.40;63.50;;;;;;5093187;28;20195;-85
2023/08/23 03:42:07;;;;;;;1.23;0.65;;;27.30;63.60;;;;;;5092640;28;20199;-85
2023/08/23 03:44:37;;;;;;;0.95;0.85;;;27.30;63.50;;;;;;5098017;28;20218;-84
2023/08/23 03:47:05;;;;;;;0.80;0.80;;;27.30;63.50;;;;;;5091809;28;20194;-85
2023/08/23 03:49:36;;;;;;;1.13;1.00;;;27.30;63.50;;;;;;5093938;28;20181;-84
2023/08/23 03:52:05;;;;;;;1.27;0.40;;;27.30;63.40;;;;;;5081165;28;20225;-84
2023/08/23 03:54:37;;;;;;;0.95;0.95;;;27.30;63.40;;;;;;5070085;28;20204;-85
2023/08/23 03:57:06;;;;;;;1.27;0.85;;;27.30;63.50;;;;;;5072567;28;20194;-86
2023/08/23 03:59:35;;;;;;;1.20;0.90;;;27.30;63.50;;;;;;5066483;28;20541;-85
2023/08/23 04:02:04;;;;;;;0.88;0.80;;;27.30;63.50;;;;;;5065547;28;20198;-84
2023/08/23 04:04:32;;;;;;;0.40;0.40;;;27.30;63.60;;;;;;5069851;28;20210;-84
2023/08/23 04:07:01;;;;;;;1.25;1.13;;;27.30;63.90;;;;;;5076108;28;20181;-85
2023/08/23 04:09:30;;;;;;;1.40;1.08;;;27.30;63.90;;;;;;5076231;28;20288;-84
2023/08/23 04:12:00;;;;;;;0.77;0.73;;;27.30;63.90;;;;;;5073593;28;20218;-85
2023/08/23 04:14:28;;;;;;;1.13;0.70;;;27.20;63.90;;;;;;5069766;28;20205;-85
2023/08/23 04:16:57;;;;;;;1.95;1.42;;;27.30;64.10;;;;;;5072446;28;20244;-83
2023/08/23 04:19:25;;;;;;;2.17;1.15;;;27.30;63.90;;;;;;5070630;28;20191;-84
2023/08/23 04:21:54;;;;;;;0.85;0.82;;;27.30;63.90;;;;;;5070789;28;20206;-84
2023/08/23 04:24:22;;;;;;;0.30;0.30;;;27.30;64.00;;;;;;5071084;28;20194;-84
2023/08/23 04:26:50;;;;;;;0.65;0.50;;;27.30;64.00;;;;;;5072547;28;20194;-85
2023/08/23 04:29:19;;;;;;;0.85;0.70;;;27.30;64.10;;;;;;5070867;28;20194;-85
2023/08/23 04:31:48;;;;;;;2.92;1.48;;;27.40;64.10;;;;;;5064566;28;20195;-82
2023/08/23 04:34:17;;;;;;;0.77;0.75;;;27.40;64.30;;;;;;5068582;28;20190;-82
2023/08/23 04:36:45;;;;;;;2.60;1.67;;;27.40;64.40;;;;;;5069003;28;20205;-82
2023/08/23 04:39:13;;;;;;;4.68;0.95;;;27.50;64.50;;;;;;5072669;28;20199;-82
2023/08/23 04:41:42;;;;;;;0.98;0.88;;;27.50;64.40;;;;;;5072644;28;20209;-82
2023/08/23 04:44:11;;;;;;;0.45;0.43;;;27.50;64.40;;;;;;5073412;28;20195;-84
2023/08/23 04:46:40;;;;;;;1.40;0.93;;;27.50;64.40;;;;;;5071208;28;20229;-83
2023/08/23 04:49:10;;;;;;;0.55;0.52;;;27.50;64.50;;;;;;5073367;28;20199;-83
2023/08/23 04:51:38;;;;;;;2.33;1.83;;;27.50;64.70;;;;;;5068944;28;20664;-83
2023/08/23 04:54:06;;;;;;;0.40;0.40;;;27.50;64.70;;;;;;5072798;28;20190;-83
2023/08/23 04:56:35;;;;;;;0.63;0.63;;;27.60;64.70;;;;;;5073279;28;20209;-84
2023/08/23 04:59:03;;;;;;;0.80;0.60;;;27.60;64.70;;;;;;5070513;28;20197;-84
2023/08/23 05:01:32;;;;;;;1.35;1.05;;;27.60;64.80;;;;;;5071074;28;20667;-84
2023/08/23 05:04:02;;;;;;;8.57;0.93;;;27.70;64.80;;;;;;5073573;28;20197;-86
2023/08/23 05:06:30;;;;;;;2.03;1.05;;;27.70;64.80;;;;;;5072345;28;20222;-83
2023/08/23 05:09:04;;;;;;;0.63;0.40;;;27.70;64.80;;;;;;5066835;28;20248;-83
2023/08/23 05:11:33;;;;;;;0.70;0.70;;;27.70;64.90;;;;;;5071672;28;20218;-83
2023/08/23 05:14:02;;;;;;;0.85;0.52;;;27.80;65.00;;;;;;5068489;28;20190;-83
2023/08/23 05:16:30;;;;;;;2.08;1.88;;;27.80;65.00;;;;;;5073232;28;20202;-83
2023/08/23 05:18:59;;;;;;;1.58;1.17;;;27.90;65.00;;;;;;5072211;28;20646;-84
2023/08/23 05:21:29;;;;;;;1.08;0.63;;;27.90;65.20;;;;;;5072617;28;20199;-83
2023/08/23 05:23:57;;;;;;;1.75;1.48;;;28.00;65.10;;;;;;5070623;28;22122;-83
2023/08/23 05:26:26;;;;;;;0.60;0.60;;;28.00;65.10;;;;;;5073522;28;20625;-82
2023/08/23 05:28:54;;;;;;;1.73;0.95;;;28.00;64.80;;;;;;5074931;28;20198;-87
2023/08/23 05:31:23;;;;;;;0.50;0.50;;;28.10;64.60;;;;;;5077306;28;20191;-86
2023/08/23 05:33:52;;;;;;;6.75;1.58;;;28.10;64.30;;;;;;5076158;28;20202;-86
2023/08/23 05:36:21;;;;;;;1.08;0.82;;;28.20;64.10;;;;;;5070080;28;20194;-85
2023/08/23 05:38:52;;;;;;;6.03;1.58;;;28.30;64.10;;;;;;5073147;28;20245;-85
2023/08/23 05:41:26;;;;;;;0.95;0.90;;;28.30;63.90;;;;;;5075628;28;20216;-87
2023/08/23 05:43:55;;;;;;;0.75;0.68;;;28.40;63.60;;;;;;5072431;28;20199;-87
2023/08/23 05:46:26;;;;;;;1.05;0.50;;;28.50;63.50;;;;;;5075977;28;20681;-85
2023/08/23 05:48:55;;;;;;;1.65;0.77;;;28.50;63.30;;;;;;5077447;28;20209;-86
2023/08/23 05:51:24;;;;;;;1.25;1.13;;;28.60;63.20;;;;;;5068502;28;20197;-86
2023/08/23 05:53:54;;;;;;;0.75;0.60;;;28.70;63.00;;;;;;5075563;28;20195;-86
2023/08/23 05:56:24;;;;;;;0.65;0.43;;;28.70;62.80;;;;;;5076494;28;20634;-85
2023/08/23 05:58:52;;;;;;;1.02;0.85;;;28.70;62.60;;;;;;5074329;28;20194;-87
2023/08/23 06:01:21;;;;;;;1.27;0.93;;;28.80;62.50;;;;;;5074930;28;20198;-86
2023/08/23 06:03:49;;;;;;;1.10;0.77;;;28.90;62.60;;;;;;5074703;28;20221;-86
2023/08/23 06:06:18;;;;;;;1.70;1.20;;;28.90;62.50;;;;;;5073292;28;20210;-86
2023/08/23 06:08:46;;;;;;;2.10;0.85;;;29.00;62.40;;;;;;5070082;28;20278;-87
2023/08/23 06:11:16;;;;;;;0.30;0.30;;;29.10;62.10;;;;;;5075904;28;20195;-86
2023/08/23 06:13:45;;;;;;;1.05;0.70;;;29.10;61.80;;;;;;5074763;28;20231;-85
2023/08/23 06:16:13;;;;;;;0.63;0.50;;;29.20;61.70;;;;;;5075325;28;20317;-86
2023/08/23 06:18:42;;;;;;;0.80;0.57;;;29.20;61.40;;;;;;5074595;28;20194;-86
2023/08/23 06:21:11;;;;;;;0.50;0.50;;;29.30;61.10;;;;;;5072359;28;20190;-87
2023/08/23 06:23:43;;;;;;;2.95;0.50;;;29.40;60.80;;;;;;5073679;28;20205;-86
2023/08/23 06:26:13;;;;;;;0.65;0.65;;;29.40;60.50;;;;;;5075253;28;20214;-86
2023/08/23 06:28:43;;;;;;;0.70;0.70;;;29.50;60.40;;;;;;5072670;28;20277;-85
2023/08/23 06:31:19;;;;;;;0.70;0.63;;;29.60;60.00;;;;;;5068073;28;20187;-85
2023/08/23 06:33:49;;;;;;;1.15;0.88;;;29.60;59.60;;;;;;5066047;28;22499;-87
2023/08/23 06:36:20;;;;;;;0.65;0.40;;;29.70;59.60;;;;;;5074727;28;20201;-83
2023/08/23 06:38:50;;;;;;;0.98;0.50;;;29.80;59.70;;;;;;5067993;28;20593;-84
2023/08/23 06:41:19;;;;;;;3.15;0.55;;;29.80;59.60;;;;;;5074904;28;20198;-87
2023/08/23 06:44:01;;;;;;;0.85;0.60;;;29.90;59.50;;;;;;5075557;28;20206;-86
2023/08/23 06:46:30;;;;;;;0.80;0.75;;;30.00;59.00;;;;;;5074903;28;20224;-85
2023/08/23 06:48:58;;;;;;;1.08;0.65;;;30.00;58.70;;;;;;5073649;28;20256;-86
2023/08/23 06:51:28;;;;;;;0.50;0.50;;;30.10;58.90;;;;;;5075245;28;20202;-86
2023/08/23 06:53:57;;;;;;;4.07;0.55;;;30.20;59.00;;;;;;5074269;28;20205;-87
2023/08/23 06:56:26;;;;;;;2.25;1.15;;;30.30;59.00;;;;;;5075165;28;20194;-87
2023/08/23 06:58:57;;;;;;;2.90;0.98;;;30.30;58.70;;;;;;5071467;28;20205;-85
2023/08/23 07:01:25;;;;;;;1.13;1.02;;;30.40;58.40;;;;;;5064488;28;20190;-85
2023/08/23 07:03:54;;;;;;;1.70;1.30;;;30.50;58.40;;;;;;5066469;28;20190;-86
2023/08/23 07:06:23;;;;;;;2.28;1.20;;;30.50;58.10;;;;;;5069067;28;20218;-87
2023/08/23 07:08:52;;;;;;;0.38;0.35;;;30.60;58.10;;;;;;5073347;28;20194;-87
2023/08/23 07:11:21;;;;;;;0.80;0.80;;;30.70;57.90;;;;;;5069007;28;20785;-85
2023/08/23 07:13:50;;;;;;;1.33;0.95;;;30.70;57.70;;;;;;5073556;28;20202;-88
2023/08/23 07:16:23;;;;;;;1.55;0.82;;;30.80;57.60;;;;;;5074436;28;20213;-89
2023/08/23 07:18:51;;;;;;;0.80;0.80;;;30.90;57.50;;;;;;5076753;28;20198;-87
2023/08/23 07:21:21;;;;;;;1.15;0.40;;;30.90;57.30;;;;;;5076358;28;20202;-87
2023/08/23 07:23:50;;;;;;;0.82;0.68;;;31.00;57.30;;;;;;5076268;28;20278;-89
2023/08/23 07:26:18;;;;;;;0.50;0.50;;;31.10;56.90;;;;;;5074788;28;20229;-89
2023/08/23 07:28:47;;;;;;;0.90;0.50;;;31.10;56.90;;;;;;5078278;28;20198;-90
2023/08/23 07:31:16;;;;;;;1.50;0.30;;;31.20;56.90;;;;;;5072114;28;20194;-86
2023/08/23 07:33:46;;;;;;;1.52;0.95;;;31.20;56.70;;;;;;5072638;28;20209;-85
2023/08/23 07:36:18;;;;;;;2.53;1.10;;;31.30;56.50;;;;;;5074534;28;20182;-89
2023/08/23 07:38:47;;;;;;;2.15;0.80;;;31.40;56.40;;;;;;5065608;28;20191;-89
2023/08/23 07:41:17;;;;;;;0.60;0.60;;;31.40;56.30;;;;;;5078971;28;20200;-89
2023/08/23 07:43:46;;;;;;;1.27;0.98;;;31.50;56.40;;;;;;5074152;28;20198;-89
2023/08/23 07:46:15;;;;;;;0.40;0.40;;;31.50;55.70;;;;;;5070452;28;20195;-87
2023/08/23 07:48:43;;;;;;;1.45;0.70;;;31.60;55.60;;;;;;5076738;28;20207;-89
2023/08/23 07:51:17;;;;;;;1.13;1.02;;;31.70;55.80;;;;;;5076488;28;20224;-88
2023/08/23 07:53:47;;;;;;;0.65;0.60;;;31.70;54.80;;;;;;5069473;28;20196;-88
2023/08/23 07:56:17;;;;;;;1.50;0.57;;;31.70;54.20;;;;;;5070440;28;20199;-87
2023/08/23 07:58:46;;;;;;;1.02;0.57;;;31.80;54.40;;;;;;5072202;28;20187;-84
2023/08/23 08:01:15;;;;;;;0.75;0.50;;;31.80;54.40;;;;;;5068140;28;20215;-86
2023/08/23 08:03:44;;;;;;;2.85;1.00;;;31.90;54.50;;;;;;5072067;28;20247;-89
2023/08/23 08:06:15;;;;;;;1.50;0.93;;;31.90;54.40;;;;;;5070912;28;20194;-87
2023/08/23 08:08:44;;;;;;;1.02;0.70;;;32.00;54.40;;;;;;5070411;28;20277;-86
2023/08/23 08:11:13;;;;;;;6.68;1.27;;;32.00;54.00;;;;;;5073730;28;20198;-87
2023/08/23 08:13:42;;;;;;;0.63;0.63;;;32.10;54.20;;;;;;5069353;28;20642;-87
2023/08/23 08:16:12;;;;;;;0.35;0.35;;;32.10;53.90;;;;;;5064262;28;20198;-86
2023/08/23 08:18:42;;;;;;;2.13;1.58;;;32.20;53.90;;;;;;5070577;28;20248;-86
2023/08/23 08:21:11;;;;;;;1.10;0.57;;;32.20;53.30;;;;;;5069807;28;20530;-87
2023/08/23 08:23:46;;;;;;;0.63;0.63;;;32.30;53.30;;;;;;5067314;28;20226;-86
2023/08/23 08:26:19;;;;;;;0.63;0.52;;;32.30;53.40;;;;;;5071886;28;20213;-86
2023/08/23 08:28:48;;;;;;;1.70;0.82;;;32.40;53.30;;;;;;5068932;28;20645;-87
2023/08/23 08:31:17;;;;;;;1.67;1.23;;;32.40;53.30;;;;;;5052056;28;20618;-86
2023/08/23 08:33:46;;;;;;;0.98;0.85;;;32.50;53.40;;;;;;5068538;28;20198;-87
2023/08/23 08:36:15;;;;;;;3.33;0.50;;;32.60;53.40;;;;;;5070936;28;20593;-88
2023/08/23 08:38:48;;;;;;;0.40;0.40;;;32.70;53.50;;;;;;5070693;28;20622;-88
2023/08/23 08:41:20;;;;;;;0.50;0.50;;;32.70;53.20;;;;;;5075284;28;20194;-87
2023/08/23 08:43:49;;;;;;;1.30;0.73;;;32.70;53.10;;;;;;5074514;28;20187;-88
2023/08/23 08:46:18;;;;;;;0.75;0.63;;;32.80;53.10;;;;;;5078972;28;20194;-88
2023/08/23 08:48:47;;;;;;;1.42;0.73;;;32.90;53.10;;;;;;5073025;28;20245;-87
2023/08/23 08:51:20;;;;;;;0.88;0.82;;;32.90;52.50;;;;;;5072648;28;20191;-86
2023/08/23 08:53:52;;;;;;;1.35;0.95;;;32.90;52.30;;;;;;5072848;28;20195;-85
2023/08/23 08:56:21;;;;;;;1.00;0.80;;;32.90;52.20;;;;;;5076769;28;20220;-90
2023/08/23 08:58:55;;;;;;;1.17;1.10;;;33.00;52.40;;;;;;5073987;28;20546;-88
2023/08/23 09:01:25;;;;;;;0.63;0.63;;;33.10;52.60;;;;;;5077768;28;20198;-89
2023/08/23 09:03:54;;;;;;;1.00;0.90;;;33.10;52.50;;;;;;5076890;28;20174;-89
2023/08/23 09:06:27;;;;;;;1.05;0.80;;;33.20;52.60;;;;;;5079438;28;20586;-87
2023/08/23 09:08:59;;;;;;;2.95;1.50;;;33.30;52.70;;;;;;5078400;28;20681;-88
2023/08/23 09:11:28;;;;;;;0.70;0.70;;;33.30;52.70;;;;;;5079838;28;20203;-87
2023/08/23 09:14:00;;;;;;;1.98;0.88;;;33.30;52.40;;;;;;5080118;28;20198;-87
2023/08/23 09:16:29;;;;;;;0.68;0.40;;;33.40;52.60;;;;;;5077703;28;20191;-88
2023/08/23 09:18:58;;;;;;;0.80;0.80;;;33.40;52.50;;;;;;5075423;28;20249;-87
2023/08/23 09:21:28;;;;;;;2.88;1.10;;;33.50;52.40;;;;;;5075302;28;20194;-88
2023/08/23 09:24:00;;;;;;;2.97;1.25;;;33.50;52.40;;;;;;5073988;28;20256;-86
2023/08/23 09:26:29;;;;;;;0.35;0.35;;;33.60;52.30;;;;;;5071763;28;20199;-88
2023/08/23 09:28:58;;;;;;;1.80;1.02;;;33.60;52.20;;;;;;5073937;28;21212;-86
2023/08/23 09:31:27;;;;;;;0.75;0.50;;;33.60;51.30;;;;;;5072782;28;20201;-86
2023/08/23 09:33:56;;;;;;;2.28;1.70;;;33.70;51.50;;;;;;5078025;28;20657;-87
2023/08/23 09:36:27;;;;;;;1.30;0.70;;;33.70;51.40;;;;;;5072876;28;20202;-86
2023/08/23 09:38:59;;;;;;;1.85;1.60;;;33.80;50.70;;;;;;5067985;28;20282;-86
2023/08/23 09:41:28;;;;;;;2.22;1.05;;;33.80;50.50;;;;;;5076948;28;20657;-86
2023/08/23 09:43:59;;;;;;;1.77;0.57;;;33.80;50.60;;;;;;5073678;28;20195;-88
2023/08/23 09:46:28;;;;;;;1.38;1.05;;;33.90;50.70;;;;;;5071767;28;20194;-87
2023/08/23 09:49:00;;;;;;;0.50;0.50;;;34.00;50.80;;;;;;5076663;28;20234;-89
2023/08/23 09:51:31;;;;;;;0.95;0.77;;;34.00;50.80;;;;;;5074931;28;20213;-87
2023/08/23 09:54:08;;;;;;;0.47;0.47;;;34.10;50.50;;;;;;5075259;28;20190;-84
2023/08/23 09:56:38;;;;;;;1.98;1.20;;;34.10;50.10;;;;;;5074972;28;20194;-85
2023/08/23 09:59:06;;;;;;;1.17;1.08;;;34.20;50.10;;;;;;5072867;28;20194;-86
2023/08/23 10:01:35;;;;;;;0.88;0.88;;;34.20;50.00;;;;;;5077877;28;20216;-86
2023/08/23 10:23:23;;;;;;;0.97;0.70;;;34.80;48.30;;;;;;6311472;22;1326569;-87
2023/08/23 10:25:59;;;;;;;0.68;0.68;;;34.80;48.30;;;;;;6312657;22;20468;-87
2023/08/23 10:28:27;;;;;;;1.98;1.48;;;34.90;48.40;;;;;;6312951;22;20168;-85
2023/08/23 10:31:01;;;;;;;1.73;0.70;;;34.90;47.60;;;;;;6311333;22;20492;-86
2023/08/23 10:33:56;;;;;;;0.68;0.63;;;34.90;47.20;;;;;;6313554;22;20161;-87
2023/08/23 10:36:32;;;;;;;1.30;1.20;;;35.00;47.00;;;;;;6311471;22;20165;-86
2023/08/23 10:39:33;;;;;;;1.05;0.70;;;35.10;47.50;;;;;;6311911;22;20569;-87
2023/08/23 10:42:02;;;;;;;0.70;0.70;;;35.10;47.70;;;;;;6310213;22;20164;-85
2023/08/23 10:47:55;;;;;;;1.85;1.08;;;35.30;47.50;;;;;;6307652;22;20239;-87
2023/08/23 10:50:31;;;;;;;0.70;0.70;;;35.30;47.50;;;;;;6312452;22;20214;-85
2023/08/23 10:53:05;;;;;;;1.10;1.00;;;35.40;47.30;;;;;;6310344;22;20693;-85
2023/08/23 10:55:35;;;;;;;1.30;0.55;;;35.40;47.30;;;;;;6314013;22;20161;-86
2023/08/23 10:58:10;;;;;;;1.15;0.95;;;35.50;47.40;;;;;;6310808;22;20497;-86
2023/08/23 11:00:41;;;;;;;1.48;0.70;;;35.50;47.30;;;;;;6307897;22;20205;-87
2023/08/23 11:03:12;;;;;;;1.25;1.15;;;35.60;46.90;;;;;;6311708;22;20167;-84
2023/08/23 11:05:41;;;;;;;0.57;0.57;;;35.70;47.10;;;;;;6310009;22;20542;-85
2023/08/23 11:08:10;;;;;;;0.52;0.52;;;35.70;47.20;;;;;;6310541;22;20169;-85
2023/08/23 11:10:43;;;;;;;1.52;1.20;;;35.70;47.20;;;;;;6308830;22;20184;-85
2023/08/23 11:13:12;;;;;;;1.17;0.80;;;35.80;47.20;;;;;;6310900;22;20161;-86
2023/08/23 11:15:51;;;;;;;0.55;0.52;;;35.80;47.30;;;;;;6311320;22;20252;-88
2023/08/23 11:18:22;;;;;;;2.42;0.80;;;35.90;47.90;;;;;;6311108;22;20235;-85
2023/08/23 11:20:50;;;;;;;1.88;0.75;;;36.00;47.30;;;;;;6307004;22;20153;-86
2023/08/23 11:23:22;;;;;;;1.45;0.85;;;36.00;47.30;;;;;;6304927;22;20189;-84
2023/08/23 11:25:53;;;;;;;2.65;1.02;;;36.10;47.00;;;;;;6306404;22;20158;-84
2023/08/23 11:28:22;;;;;;;0.80;0.75;;;36.00;46.30;;;;;;6305806;22;20227;-84
2023/08/23 11:30:50;;;;;;;0.85;0.60;;;36.10;46.00;;;;;;6304481;22;20169;-85
2023/08/23 11:33:22;;;;;;;0.95;0.95;;;36.10;45.70;;;;;;6304594;22;20328;-87
2023/08/23 11:36:03;;;;;;;1.02;0.80;;;36.10;45.20;;;;;;6305495;22;20165;-87
2023/08/23 11:38:32;;;;;;;1.08;0.93;;;36.10;46.00;;;;;;6305770;22;20161;-85
2023/08/23 11:41:11;;;;;;;0.82;0.82;;;36.20;45.70;;;;;;6304310;22;20169;-86
2023/08/23 11:43:58;;;;;;;2.92;1.27;;;36.30;45.70;;;;;;6306428;22;20240;-87
2023/08/23 11:46:29;;;;;;;0.57;0.57;;;36.30;45.70;;;;;;6306093;22;20165;-85
2023/08/23 11:49:01;;;;;;;1.27;0.77;;;36.40;45.70;;;;;;6304442;22;20168;-86
2023/08/23 11:51:39;;;;;;;0.60;0.60;;;36.40;45.50;;;;;;6305551;22;20183;-86
2023/08/23 11:54:09;;;;;;;0.40;0.40;;;36.50;45.80;;;;;;6305330;22;20168;-87
2023/08/23 11:56:43;;;;;;;1.20;0.73;;;36.50;46.00;;;;;;6305839;22;20154;-85
2023/08/23 11:59:13;;;;;;;3.08;1.23;;;36.40;45.90;;;;;;6304146;22;20272;-86
2023/08/23 12:01:43;;;;;;;1.33;0.93;;;36.40;45.80;;;;;;6305363;22;20601;-87
2023/08/23 12:04:12;;;;;;;2.75;0.98;;;36.40;45.70;;;;;;6304335;22;20165;-89
2023/08/23 12:06:41;;;;;;;2.15;1.25;;;36.40;45.80;;;;;;6306171;22;20169;-88
2023/08/23 12:09:11;;;;;;;0.43;0.43;;;36.40;45.20;;;;;;6300859;22;20176;-87
2023/08/23 12:11:42;;;;;;;0.85;0.70;;;36.40;45.10;;;;;;6302725;22;20154;-87
2023/08/23 12:14:10;;;;;;;0.63;0.63;;;36.30;45.20;;;;;;6304913;22;20172;-86
2023/08/23 12:16:39;;;;;;;1.27;0.68;;;36.30;45.50;;;;;;6307532;22;20496;-86
2023/08/23 12:19:07;;;;;;;1.40;1.20;;;36.20;45.40;;;;;;6306468;22;20268;-87
2023/08/23 12:21:56;;;;;;;0.73;0.63;;;36.20;45.50;;;;;;6305671;22;20169;-86
2023/08/23 12:24:25;;;;;;;0.68;0.55;;;36.20;45.60;;;;;;6306258;22;20665;-87
2023/08/23 12:26:55;;;;;;;0.82;0.57;;;36.10;45.50;;;;;;6306542;22;20173;-87
2023/08/23 12:29:24;;;;;;;0.60;0.60;;;36.10;45.60;;;;;;6305524;22;20204;-88
2023/08/23 12:31:52;;;;;;;0.50;0.50;;;36.10;45.70;;;;;;6307946;22;20172;-86
2023/08/23 12:34:25;;;;;;;0.55;0.55;;;36.20;45.70;;;;;;6306830;22;20193;-87
2023/08/23 12:36:54;;;;;;;0.60;0.60;;;36.30;45.70;;;;;;6304486;22;20619;-87
2023/08/23 12:39:22;;;;;;;0.70;0.50;;;36.30;45.70;;;;;;6304681;22;20199;-88
2023/08/23 12:41:51;;;;;;;1.67;0.43;;;36.40;45.30;;;;;;6306582;22;20199;-88
2023/08/23 12:44:21;;;;;;;0.70;0.70;;;36.40;45.30;;;;;;6305191;22;20243;-88
2023/08/23 12:46:50;;;;;;;1.13;1.00;;;36.50;45.20;;;;;;6302715;22;20165;-86
2023/08/23 12:49:18;;;;;;;1.25;1.15;;;36.50;45.10;;;;;;6304020;22;20169;-89
2023/08/23 12:51:47;;;;;;;1.10;1.00;;;36.60;44.90;;;;;;6303844;22;20256;-90
2023/08/23 12:54:16;;;;;;;1.10;0.90;;;36.60;44.80;;;;;;6305820;22;20595;-87
2023/08/23 12:56:44;;;;;;;1.45;1.13;;;36.70;44.50;;;;;;6305059;22;20169;-87
2023/08/23 12:59:13;;;;;;;0.77;0.77;;;36.70;44.60;;;;;;6305651;22;20214;-88
2023/08/23 13:01:43;;;;;;;0.85;0.75;;;36.80;44.60;;;;;;6305055;22;20211;-87
2023/08/23 13:04:11;;;;;;;0.63;0.63;;;36.80;44.30;;;;;;6305677;22;20169;-85
2023/08/23 13:06:40;;;;;;;0.60;0.60;;;36.90;44.60;;;;;;6304486;22;20236;-84
2023/08/23 13:09:09;;;;;;;0.82;0.50;;;36.90;44.50;;;;;;6305226;22;20200;-86
2023/08/23 13:11:39;;;;;;;0.80;0.60;;;36.80;44.70;;;;;;6305433;22;20170;-85
2023/08/23 13:14:08;;;;;;;0.70;0.70;;;36.80;44.50;;;;;;6304352;22;20236;-87
2023/08/23 13:16:36;;;;;;;0.75;0.75;;;36.80;44.00;;;;;;6304906;22;20237;-86
2023/08/23 13:19:06;;;;;;;1.27;1.17;;;36.80;44.10;;;;;;6305489;22;20165;-85
2023/08/23 13:21:35;;;;;;;2.15;1.55;;;36.90;44.00;;;;;;6304523;22;20203;-87
2023/08/23 13:24:04;;;;;;;0.60;0.60;;;36.90;44.10;;;;;;6303694;22;20642;-86
2023/08/23 13:26:33;;;;;;;2.05;0.90;;;37.00;44.20;;;;;;6305152;22;20177;-88